Terminal Aerodrome Forecast
Issued by NWS

Home | Current Version | Previous Version | Text Only | Print | Product List | Glossary On
Versions: 1 2 3 4 5 6 7 8 9 10 11 12 13 14 15 16 17 18
000
FTUS45 KTFX 271700 RRA
TAFCTB
TAF
KCTB 271746Z 2718/2818 35015KT 5SM -SHSN BR SCT010 BKN020
      TEMPO 2718/2720 1SM -SN BR BKN008
     FM272000 35014KT 6SM -SHSN BR SCT010 BKN025
      TEMPO 2720/2723 2SM -SHSN BKN010
     FM280300 36006KT 4SM -SHSN BR OVC010=

USA.gov is the U.S. government's official web portal to all federal, state and local government web resources and services.